Time;durP1;ratioP1;P1;durP2;ratioP2;P2;SDS_P1;SDS_P2;PMS_P1;PMS_P2;Temp;Humidity;BMP_temperature;BMP_pressure;BME280_temperature;BME280_humidity;BME280_pressure;Samples;Min_cycle;Max_cycle;Signal;HPM_P1;HPM_P2
2022/05/06 00:01:08;;;;;;;21.63;19.37;;;16.70;54.10;;;;;;20733;6826;117887;-73
2022/05/06 00:03:37;;;;;;;19.87;17.97;;;16.70;54.10;;;;;;20753;6827;117446;-73
2022/05/06 00:05:59;;;;;;;23.77;21.58;;;16.40;54.80;;;;;;20526;6827;308581;-72
2022/05/06 00:08:25;;;;;;;20.67;18.57;;;16.50;54.40;;;;;;20761;6827;120817;-72
2022/05/06 00:10:51;;;;;;;21.15;19.02;;;16.20;55.30;;;;;;20768;6828;117447;-72
2022/05/06 00:13:17;;;;;;;20.13;18.23;;;16.20;55.30;;;;;;20772;6828;117840;-72
2022/05/06 00:15:44;;;;;;;18.63;16.93;;;15.80;56.20;;;;;;20748;6828;120582;-72
2022/05/06 00:18:10;;;;;;;20.63;18.43;;;15.80;56.20;;;;;;20771;6828;118667;-72
2022/05/06 00:20:35;;;;;;;19.03;17.33;;;15.70;56.60;;;;;;20759;6828;117411;-72
2022/05/06 00:23:01;;;;;;;20.27;18.27;;;15.60;56.90;;;;;;20764;6828;117459;-72
2022/05/06 00:25:26;;;;;;;22.85;20.60;;;15.60;57.20;;;;;;20553;6828;307842;-72
2022/05/06 00:27:52;;;;;;;24.45;22.23;;;15.80;56.70;;;;;;20531;6828;308188;-72
2022/05/06 00:30:18;;;;;;;21.80;19.80;;;16.20;55.70;;;;;;20766;6828;121712;-72
2022/05/06 00:32:43;;;;;;;21.97;19.77;;;16.20;55.70;;;;;;20764;6828;117664;-72
2022/05/06 00:35:09;;;;;;;22.10;19.90;;;16.00;56.30;;;;;;20769;6828;117511;-72
2022/05/06 00:37:35;;;;;;;26.37;23.95;;;15.80;56.50;;;;;;20556;6828;306911;-72
2022/05/06 00:40:01;;;;;;;21.90;19.83;;;15.90;55.90;;;;;;20770;6828;117619;-72
2022/05/06 00:42:27;;;;;;;22.80;20.80;;;15.90;56.10;;;;;;20781;6828;117853;-71
2022/05/06 00:44:53;;;;;;;22.80;20.70;;;15.80;56.70;;;;;;20563;6828;342442;-72
2022/05/06 00:47:20;;;;;;;26.35;23.80;;;16.20;55.30;;;;;;20570;6828;306518;-72
2022/05/06 00:49:46;;;;;;;23.20;20.70;;;16.20;55.50;;;;;;20753;6828;118050;-72
2022/05/06 00:52:12;;;;;;;21.70;19.50;;;16.10;55.40;;;;;;20764;6828;120081;-72
2022/05/06 00:54:38;;;;;;;21.75;19.55;;;15.70;56.60;;;;;;20777;6828;118004;-72
2022/05/06 00:57:04;;;;;;;22.03;19.93;;;15.70;56.60;;;;;;20761;6828;118090;-72
2022/05/06 00:59:29;;;;;;;21.63;19.33;;;15.50;57.00;;;;;;20760;6828;117994;-72
2022/05/06 01:01:56;;;;;;;22.77;20.67;;;15.40;57.50;;;;;;20529;6828;470676;-72
2022/05/06 01:04:22;;;;;;;22.43;20.20;;;15.60;57.00;;;;;;20763;6828;119331;-72
2022/05/06 01:06:47;;;;;;;21.20;18.90;;;15.70;57.00;;;;;;20771;6828;118978;-72
2022/05/06 01:09:17;;;;;;;21.93;19.73;;;15.40;57.50;;;;;;20754;6828;118730;-72
2022/05/06 01:11:42;;;;;;;19.23;17.43;;;15.40;57.40;;;;;;20747;6826;117590;-72
2022/05/06 01:14:08;;;;;;;25.50;23.00;;;15.30;57.60;;;;;;20543;6827;321785;-72
2022/05/06 01:16:33;;;;;;;26.23;23.57;;;15.60;56.70;;;;;;20561;6827;278162;-72
2022/05/06 01:18:59;;;;;;;20.75;18.85;;;15.90;55.80;;;;;;20765;6827;117489;-72
2022/05/06 01:21:26;;;;;;;20.17;18.17;;;15.80;55.90;;;;;;20756;6827;118415;-71
2022/05/06 01:23:51;;;;;;;22.63;20.50;;;15.60;56.60;;;;;;20534;6828;307638;-72
2022/05/06 01:26:17;;;;;;;21.03;18.97;;;15.80;56.30;;;;;;20764;6828;117611;-72
2022/05/06 01:28:43;;;;;;;20.93;18.93;;;15.60;57.00;;;;;;20772;6828;117924;-72
2022/05/06 01:31:10;;;;;;;22.67;18.73;;;15.60;57.00;;;;;;20759;6828;118656;-72
2022/05/06 01:33:35;;;;;;;23.38;21.05;;;15.40;57.40;;;;;;20539;6828;307819;-72
2022/05/06 01:36:01;;;;;;;22.40;20.40;;;15.60;57.00;;;;;;20531;6828;346060;-72
2022/05/06 01:38:27;;;;;;;23.20;21.23;;;16.00;56.10;;;;;;20548;6828;280891;-71
2022/05/06 01:40:59;;;;;;;23.60;21.42;;;16.50;54.50;;;;;;20551;6828;307684;-71
2022/05/06 01:43:25;;;;;;;18.43;16.73;;;16.50;54.50;;;;;;20766;6828;117985;-72
2022/05/06 01:45:50;;;;;;;22.62;20.58;;;16.40;55.00;;;;;;20530;6828;278870;-72
2022/05/06 01:48:16;;;;;;;24.00;21.90;;;16.40;54.70;;;;;;20551;6828;307592;-72
2022/05/06 01:50:42;;;;;;;24.77;22.40;;;16.60;54.30;;;;;;20543;6828;280246;-72
2022/05/06 01:53:09;;;;;;;25.17;22.67;;;16.80;54.10;;;;;;20553;6828;278520;-72
2022/05/06 01:55:35;;;;;;;19.57;17.77;;;16.70;54.40;;;;;;20767;6828;118654;-72
2022/05/06 01:58:00;;;;;;;24.20;21.93;;;16.60;54.20;;;;;;20529;6828;295309;-72
2022/05/06 02:00:26;;;;;;;23.03;20.87;;;16.60;54.10;;;;;;20763;6828;118744;-72
2022/05/06 02:02:52;;;;;;;24.77;22.47;;;16.40;54.60;;;;;;20545;6828;312970;-72
2022/05/06 02:05:17;;;;;;;23.87;20.93;;;16.40;54.50;;;;;;20764;6828;117583;-72
2022/05/06 02:07:45;;;;;;;23.10;20.00;;;16.30;54.90;;;;;;20749;6828;118431;-72
2022/05/06 02:10:12;;;;;;;25.02;22.58;;;16.00;55.40;;;;;;20541;6828;307115;-72
2022/05/06 02:12:38;;;;;;;25.88;23.48;;;16.00;55.20;;;;;;20553;6828;298827;-71
2022/05/06 02:15:04;;;;;;;21.77;19.45;;;16.10;54.90;;;;;;20759;6828;117863;-72
2022/05/06 02:17:32;;;;;;;22.23;20.00;;;15.80;56.30;;;;;;20768;6828;118524;-72
2022/05/06 02:19:58;;;;;;;22.07;19.80;;;15.80;55.60;;;;;;20745;6828;122505;-72
2022/05/06 02:22:27;;;;;;;24.20;22.00;;;15.60;56.30;;;;;;20548;6826;283401;-72
2022/05/06 02:24:50;;;;;;;25.63;23.20;;;15.70;55.80;;;;;;20557;6827;312870;-72
2022/05/06 02:27:15;;;;;;;21.23;19.10;;;16.10;55.20;;;;;;20770;6827;117453;-72
2022/05/06 02:33:12;;;;;;;24.40;22.17;;;16.00;55.50;;;;;;20549;6827;284078;-72
2022/05/06 02:34:53;;;;;;;24.23;21.93;;;16.50;54.10;;;;;;20551;6828;295332;-72
2022/05/06 02:37:19;;;;;;;22.20;20.07;;;16.50;54.00;;;;;;20751;6828;117988;-72
2022/05/06 02:39:47;;;;;;;20.77;18.52;;;16.40;54.60;;;;;;20748;6828;118675;-72
2022/05/06 02:42:13;;;;;;;19.13;17.23;;;16.00;55.40;;;;;;20765;6828;121040;-72
2022/05/06 02:44:38;;;;;;;19.13;17.27;;;15.70;56.00;;;;;;20752;6828;118575;-72
2022/05/06 02:47:04;;;;;;;24.37;22.17;;;15.50;56.60;;;;;;20535;6828;307494;-72
2022/05/06 02:49:30;;;;;;;22.20;19.83;;;15.70;55.90;;;;;;20737;6828;118011;-72
2022/05/06 02:51:56;;;;;;;24.87;22.37;;;15.90;55.90;;;;;;20504;6828;307542;-72
2022/05/06 02:54:22;;;;;;;22.77;20.58;;;15.90;55.40;;;;;;20560;6828;283212;-72
2022/05/06 02:56:49;;;;;;;24.70;22.30;;;16.20;54.80;;;;;;20531;6828;312314;-72
2022/05/06 02:59:14;;;;;;;23.43;21.23;;;16.30;54.00;;;;;;20540;6828;311868;-72
2022/05/06 03:01:42;;;;;;;20.87;18.07;;;16.30;54.10;;;;;;20757;6828;118100;-72
2022/05/06 03:04:11;;;;;;;22.17;20.07;;;16.30;54.10;;;;;;20550;6828;307130;-72
2022/05/06 03:06:33;;;;;;;21.02;18.92;;;16.30;53.80;;;;;;20755;6828;120876;-72
2022/05/06 03:08:59;;;;;;;21.75;19.80;;;16.10;54.30;;;;;;20559;6828;308210;-72
2022/05/06 03:11:26;;;;;;;24.20;21.80;;;16.20;53.90;;;;;;20555;6828;308984;-73
2022/05/06 03:13:52;;;;;;;20.70;18.53;;;16.30;53.40;;;;;;20730;6828;117621;-73
2022/05/06 03:16:20;;;;;;;23.87;21.60;;;16.30;53.70;;;;;;20558;6828;281570;-72
2022/05/06 03:18:45;;;;;;;20.07;17.93;;;16.20;53.50;;;;;;20769;6828;117557;-71
2022/05/06 03:21:11;;;;;;;22.35;20.15;;;16.10;54.10;;;;;;20546;6828;337362;-71
2022/05/06 03:23:37;;;;;;;31.50;28.37;;;16.30;53.70;;;;;;20556;6828;312172;-73
2022/05/06 03:26:03;;;;;;;19.60;17.33;;;16.30;53.70;;;;;;20631;6828;118585;-71
2022/05/06 03:28:31;;;;;;;19.13;17.13;;;16.20;54.10;;;;;;20764;6828;118063;-71
2022/05/06 03:30:54;;;;;;;21.03;18.93;;;15.90;54.80;;;;;;20553;6828;278006;-71
2022/05/06 03:33:19;;;;;;;17.83;15.97;;;16.00;54.40;;;;;;20790;6828;68241;-71
2022/05/06 03:35:47;;;;;;;19.17;17.57;;;16.10;54.10;;;;;;20537;6826;308053;-72
2022/05/06 03:38:14;;;;;;;19.10;17.27;;;16.10;54.10;;;;;;20776;6827;117599;-72
2022/05/06 03:40:40;;;;;;;20.10;18.10;;;16.10;54.50;;;;;;20558;6827;307826;-72
2022/05/06 03:43:07;;;;;;;19.13;17.23;;;16.10;54.20;;;;;;20801;6827;70267;-72
2022/05/06 03:45:32;;;;;;;21.67;19.60;;;16.00;54.50;;;;;;20562;6828;309910;-75
2022/05/06 03:47:58;;;;;;;18.27;16.57;;;16.20;54.10;;;;;;20760;6828;121799;-72
2022/05/06 03:53:09;;;;;;;19.13;16.97;;;16.00;54.80;;;;;;20766;6828;117454;-72
2022/05/06 03:55:35;;;;;;;18.27;16.27;;;16.00;54.80;;;;;;20777;6828;117574;-72
2022/05/06 03:58:01;;;;;;;18.37;16.70;;;15.60;56.10;;;;;;20747;6828;117481;-72
2022/05/06 04:00:27;;;;;;;20.42;18.37;;;15.60;56.10;;;;;;20559;6828;308003;-72
2022/05/06 04:02:53;;;;;;;19.07;17.47;;;15.80;56.00;;;;;;20560;6828;337086;-72
2022/05/06 04:05:18;;;;;;;19.67;17.77;;;16.00;55.30;;;;;;20560;6828;278069;-72
2022/05/06 04:07:43;;;;;;;19.90;17.90;;;16.30;54.70;;;;;;20546;6828;287238;-72
2022/05/06 04:10:09;;;;;;;17.23;15.47;;;16.50;53.60;;;;;;20768;6828;117618;-72
2022/05/06 04:12:35;;;;;;;17.17;15.60;;;16.40;53.20;;;;;;20564;6828;307589;-72
2022/05/06 04:15:01;;;;;;;17.63;15.90;;;16.40;53.20;;;;;;20771;6828;118456;-72
2022/05/06 04:17:26;;;;;;;17.03;15.33;;;16.30;53.80;;;;;;20772;6828;117977;-72
2022/05/06 04:25:23;;;;;;;16.70;15.17;;;16.00;55.10;;;;;;20782;6828;117585;-72
2022/05/06 04:27:48;;;;;;;15.70;14.23;;;15.80;55.90;;;;;;20748;6828;121521;-73
2022/05/06 04:30:14;;;;;;;19.20;17.60;;;15.60;56.50;;;;;;20558;6828;337203;-74
2022/05/06 04:32:40;;;;;;;17.10;15.40;;;15.80;56.60;;;;;;20768;6828;124356;-73
2022/05/06 04:35:06;;;;;;;19.45;17.55;;;15.80;56.60;;;;;;20567;6828;296239;-75
2022/05/06 04:37:34;;;;;;;17.07;15.47;;;16.00;56.30;;;;;;20774;6828;117468;-73
2022/05/06 04:40:00;;;;;;;16.40;14.77;;;15.90;56.40;;;;;;20735;6828;117747;-73
2022/05/06 04:42:26;;;;;;;19.23;17.62;;;15.80;56.80;;;;;;20565;6828;308151;-74
2022/05/06 04:44:52;;;;;;;16.60;15.10;;;15.80;56.80;;;;;;20766;6828;119887;-73
2022/05/06 04:47:17;;;;;;;19.33;17.50;;;15.80;56.80;;;;;;20562;6826;279527;-73
2022/05/06 04:49:43;;;;;;;20.17;18.40;;;16.00;56.10;;;;;;20540;6827;278638;-74
2022/05/06 04:52:09;;;;;;;19.17;17.37;;;16.30;55.00;;;;;;20558;6827;278592;-74
2022/05/06 04:54:34;;;;;;;18.98;17.17;;;16.50;54.30;;;;;;20568;6827;337197;-74
2022/05/06 04:57:00;;;;;;;16.80;15.20;;;16.70;53.50;;;;;;20778;6828;117931;-74
2022/05/06 04:59:25;;;;;;;18.97;17.17;;;16.50;54.00;;;;;;20563;6828;278193;-73
2022/05/06 05:01:52;;;;;;;15.88;14.35;;;16.40;53.10;;;;;;20748;6828;118834;-74
2022/05/06 05:04:18;;;;;;;16.13;14.63;;;16.30;53.70;;;;;;20779;6828;118189;-74
2022/05/06 05:06:45;;;;;;;15.70;14.03;;;16.00;54.40;;;;;;20775;6828;117574;-74
2022/05/06 05:09:10;;;;;;;17.05;15.55;;;15.80;55.10;;;;;;20564;6828;293024;-73
2022/05/06 05:11:36;;;;;;;17.40;15.80;;;15.90;54.60;;;;;;20561;6828;337368;-73
2022/05/06 05:14:06;;;;;;;17.15;15.60;;;16.20;53.80;;;;;;20549;6828;279176;-74
2022/05/06 05:16:27;;;;;;;16.80;15.30;;;16.50;53.10;;;;;;20555;6828;297241;-74
2022/05/06 05:18:53;;;;;;;15.98;14.60;;;16.70;52.90;;;;;;20561;6828;309689;-74
2022/05/06 05:21:19;;;;;;;15.23;13.63;;;16.60;53.50;;;;;;20775;6828;122831;-74
2022/05/06 05:23:45;;;;;;;16.60;15.10;;;16.60;52.80;;;;;;20541;6828;321750;-73
2022/05/06 05:26:10;;;;;;;14.43;13.13;;;16.60;52.50;;;;;;20770;6828;117775;-77
2022/05/06 05:28:36;;;;;;;16.13;14.60;;;16.50;53.60;;;;;;20582;6828;297241;-75
2022/05/06 05:31:02;;;;;;;17.00;15.32;;;16.50;53.10;;;;;;20550;6828;308159;-72
2022/05/06 05:33:28;;;;;;;17.00;15.53;;;16.70;52.60;;;;;;20544;6828;295554;-72
2022/05/06 05:35:53;;;;;;;14.63;13.37;;;16.90;52.50;;;;;;20748;6828;118921;-72
2022/05/06 05:38:21;;;;;;;14.67;13.30;;;16.40;53.80;;;;;;20768;6828;117540;-75
2022/05/06 05:40:46;;;;;;;16.90;15.40;;;16.40;53.90;;;;;;20566;6828;291146;-74
2022/05/06 05:48:43;;;;;;;15.95;14.55;;;17.10;52.10;;;;;;20583;6828;307798;-71
2022/05/06 05:51:09;;;;;;;15.00;13.80;;;17.10;51.50;;;;;;20570;6828;286323;-71
2022/05/06 05:53:34;;;;;;;15.45;14.13;;;17.20;51.50;;;;;;20562;6828;283211;-72
2022/05/06 05:56:01;;;;;;;14.90;13.70;;;17.30;50.90;;;;;;20539;6828;312700;-71
2022/05/06 05:58:27;;;;;;;12.97;11.63;;;17.40;50.90;;;;;;20776;6826;117257;-71
2022/05/06 06:00:52;;;;;;;14.10;12.77;;;17.10;51.70;;;;;;20771;6827;117797;-71
2022/05/06 06:03:18;;;;;;;14.07;12.77;;;16.80;53.10;;;;;;20783;6827;124802;-70
2022/05/06 06:05:44;;;;;;;13.10;12.00;;;16.50;53.40;;;;;;20761;6827;149124;-74
2022/05/06 06:08:11;;;;;;;12.97;11.87;;;16.10;54.50;;;;;;20757;6827;116639;-72
2022/05/06 06:10:36;;;;;;;12.80;11.63;;;16.10;54.50;;;;;;20771;6828;117937;-72
2022/05/06 06:13:04;;;;;;;15.13;13.83;;;16.20;54.10;;;;;;20554;6828;280482;-72
2022/05/06 06:15:28;;;;;;;12.53;11.50;;;16.20;54.10;;;;;;20757;6828;117475;-71
2022/05/06 06:17:54;;;;;;;14.53;13.33;;;16.30;54.30;;;;;;20550;6828;307703;-71
2022/05/06 06:20:21;;;;;;;15.97;14.37;;;16.50;54.00;;;;;;20788;6828;117653;-72
2022/05/06 06:22:45;;;;;;;15.60;14.10;;;16.50;54.20;;;;;;20775;6828;117161;-72
2022/05/06 06:25:12;;;;;;;17.43;15.93;;;16.30;54.70;;;;;;20560;6828;307201;-76
2022/05/06 06:27:38;;;;;;;15.13;13.73;;;16.40;55.00;;;;;;20776;6828;117288;-72
2022/05/06 06:30:05;;;;;;;16.60;15.30;;;16.40;55.00;;;;;;20417;6828;295992;-72
2022/05/06 06:32:31;;;;;;;16.20;14.60;;;16.60;55.60;;;;;;20771;6828;117975;-71
2022/05/06 06:34:57;;;;;;;17.97;16.47;;;16.60;55.80;;;;;;20510;6842;308921;-73
2022/05/06 06:37:25;;;;;;;16.90;15.60;;;16.70;55.20;;;;;;20531;6829;308049;-74
2022/05/06 06:39:48;;;;;;;18.55;16.85;;;16.90;54.40;;;;;;20516;6820;294698;-72
2022/05/06 06:42:14;;;;;;;17.50;16.05;;;17.10;53.70;;;;;;20548;6835;278665;-72
2022/05/06 06:44:40;;;;;;;14.17;12.97;;;17.30;52.70;;;;;;20763;6835;116542;-72
2022/05/06 06:47:08;;;;;;;14.25;13.25;;;17.00;53.10;;;;;;20538;6835;345840;-72
2022/05/06 06:49:34;;;;;;;13.90;12.90;;;17.00;52.50;;;;;;20517;6841;278733;-74
2022/05/06 06:52:00;;;;;;;13.37;12.37;;;17.10;52.10;;;;;;20473;6841;280154;-75
2022/05/06 06:54:26;;;;;;;11.90;10.83;;;17.20;51.50;;;;;;20743;6826;119068;-76
2022/05/06 06:56:52;;;;;;;11.90;10.80;;;17.00;52.30;;;;;;20781;6826;117359;-72
2022/05/06 06:59:18;;;;;;;14.40;13.27;;;16.70;52.70;;;;;;20561;6826;308870;-72
2022/05/06 07:01:44;;;;;;;13.17;12.13;;;16.70;52.70;;;;;;20761;6826;118776;-72
2022/05/06 07:04:10;;;;;;;13.68;12.52;;;16.60;52.80;;;;;;20554;6826;342016;-73
2022/05/06 07:12:09;;;;;;;13.73;10.57;;;16.60;53.00;;;;;;20795;6826;118035;-71
2022/05/06 07:14:36;;;;;;;11.53;10.47;;;16.50;53.30;;;;;;20786;6826;117610;-73
2022/05/06 07:17:02;;;;;;;10.70;9.80;;;16.30;53.90;;;;;;20780;6826;119443;-75
2022/05/06 07:19:27;;;;;;;10.60;9.80;;;15.90;54.90;;;;;;20774;6826;117829;-73
2022/05/06 07:21:52;;;;;;;10.73;9.93;;;15.90;54.90;;;;;;20753;6826;117425;-75
2022/05/06 07:24:21;;;;;;;12.03;11.10;;;15.80;55.00;;;;;;20568;6826;312246;-74
2022/05/06 07:26:47;;;;;;;12.60;11.70;;;16.40;53.00;;;;;;20549;6826;312715;-78
2022/05/06 07:29:13;;;;;;;11.63;10.33;;;16.40;53.00;;;;;;20779;6826;117639;-72
2022/05/06 07:31:38;;;;;;;10.70;9.87;;;16.50;53.30;;;;;;20762;6826;121424;-74
2022/05/06 07:34:04;;;;;;;10.90;10.20;;;16.30;53.50;;;;;;20776;6826;123728;-72
2022/05/06 07:36:30;;;;;;;11.07;10.27;;;16.10;53.80;;;;;;20791;6826;121438;-80
2022/05/06 07:38:56;;;;;;;13.15;11.98;;;16.10;52.50;;;;;;20574;6826;308494;-74
2022/05/06 07:41:22;;;;;;;12.85;11.45;;;16.40;51.60;;;;;;20577;6826;281914;-74
2022/05/06 07:43:48;;;;;;;12.80;11.73;;;16.40;51.60;;;;;;20544;6826;311978;-79
2022/05/06 07:46:15;;;;;;;12.87;11.83;;;16.60;50.90;;;;;;20570;6826;292867;-74
2022/05/06 07:48:40;;;;;;;10.83;9.93;;;16.80;50.80;;;;;;20783;6826;117540;-73
2022/05/06 07:51:07;;;;;;;11.20;10.17;;;16.30;52.00;;;;;;20777;6826;117659;-76
2022/05/06 07:53:32;;;;;;;13.03;10.37;;;16.30;52.00;;;;;;20780;6826;118561;-75
2022/05/06 07:55:58;;;;;;;12.73;11.63;;;16.10;52.80;;;;;;20548;6826;308275;-72
2022/05/06 07:58:24;;;;;;;13.73;11.18;;;16.10;52.10;;;;;;20568;6826;296724;-72
2022/05/06 08:00:50;;;;;;;11.90;10.90;;;16.40;51.20;;;;;;20562;6826;310618;-72
2022/05/06 08:06:01;;;;;;;10.93;10.10;;;16.60;51.10;;;;;;20742;6832;118440;-72
2022/05/06 08:08:26;;;;;;;10.40;9.50;;;16.30;52.00;;;;;;20721;6843;117703;-72
2022/05/06 08:10:52;;;;;;;12.60;11.40;;;16.20;51.70;;;;;;20512;6843;341907;-73
2022/05/06 08:13:18;;;;;;;11.30;10.40;;;16.20;51.70;;;;;;20749;6832;117818;-71
2022/05/06 08:15:44;;;;;;;12.30;11.20;;;16.20;51.90;;;;;;20705;6843;117724;-72
2022/05/06 08:18:09;;;;;;;12.77;11.57;;;16.00;52.40;;;;;;20546;6832;311957;-72
2022/05/06 08:20:36;;;;;;;11.65;10.63;;;16.20;51.50;;;;;;20515;6841;283085;-73
2022/05/06 08:23:01;;;;;;;10.40;9.60;;;16.60;50.60;;;;;;20759;6831;118615;-73
2022/05/06 08:25:28;;;;;;;10.20;9.33;;;16.30;52.20;;;;;;20736;6842;117900;-73
2022/05/06 08:27:55;;;;;;;10.67;9.87;;;16.30;51.50;;;;;;20537;6832;316657;-72
2022/05/06 08:30:20;;;;;;;11.07;10.18;;;16.40;50.50;;;;;;20512;6842;338190;-73
2022/05/06 08:32:46;;;;;;;9.70;8.77;;;16.60;50.30;;;;;;20766;6832;117371;-73
2022/05/06 08:35:12;;;;;;;11.33;10.43;;;16.50;50.70;;;;;;20560;6828;281662;-74
2022/05/06 08:37:40;;;;;;;11.47;10.37;;;16.60;50.10;;;;;;20512;6842;279865;-74
2022/05/06 08:40:07;;;;;;;10.23;8.90;;;16.80;49.40;;;;;;20710;6842;117782;-75
2022/05/06 08:42:37;;;;;;;10.13;9.33;;;16.80;49.10;;;;;;20534;6832;337613;-76
2022/05/06 08:50:53;;;;;;;9.52;8.93;;;16.90;48.50;;;;;;20563;6828;337214;-76
2022/05/06 08:53:22;;;;;;;10.32;9.48;;;17.20;47.50;;;;;;20560;6828;307257;-76
2022/05/06 08:55:50;;;;;;;8.87;8.07;;;17.50;47.30;;;;;;20752;6828;121450;-76
2022/05/06 08:58:16;;;;;;;8.50;7.77;;;17.30;48.10;;;;;;20770;6828;117895;-76
2022/05/06 09:00:41;;;;;;;9.40;8.60;;;17.10;49.10;;;;;;20547;6828;338787;-76
2022/05/06 09:03:07;;;;;;;8.27;7.68;;;17.30;47.70;;;;;;20775;6828;118843;-76
2022/05/06 09:05:33;;;;;;;9.40;8.43;;;17.00;48.90;;;;;;20763;6828;117230;-75
2022/05/06 09:08:02;;;;;;;9.87;8.87;;;17.00;48.90;;;;;;20488;6828;308450;-77
2022/05/06 09:10:27;;;;;;;10.02;9.25;;;17.20;47.70;;;;;;20560;6828;282807;-77
2022/05/06 09:12:56;;;;;;;54.10;48.20;;;17.70;47.40;;;;;;20549;6828;307943;-76
2022/05/06 09:18:07;;;;;;;12.67;8.07;;;17.70;47.70;;;;;;20762;6828;118105;-75
2022/05/06 09:20:30;;;;;;;9.50;8.57;;;17.50;48.50;;;;;;20745;6828;117384;-77
2022/05/06 09:22:56;;;;;;;8.68;7.97;;;17.40;49.80;;;;;;20554;6828;311801;-77
2022/05/06 09:25:52;;;;;;;8.27;7.60;;;17.70;48.00;;;;;;20768;6828;117664;-76
2022/05/06 09:28:26;;;;;;;9.23;8.53;;;17.80;48.10;;;;;;20553;6828;306696;-75
2022/05/06 09:30:59;;;;;;;8.27;7.57;;;18.10;46.60;;;;;;20762;6828;117321;-75
2022/05/06 09:33:24;;;;;;;8.93;8.27;;;18.20;47.50;;;;;;20555;6826;337602;-75
2022/05/06 09:35:49;;;;;;;9.33;8.37;;;18.40;45.30;;;;;;20532;6827;281279;-75
2022/05/06 09:38:16;;;;;;;8.87;7.97;;;18.80;44.70;;;;;;20561;6827;278127;-75
2022/05/06 09:40:41;;;;;;;8.10;7.50;;;19.00;43.80;;;;;;20760;6827;117517;-75
2022/05/06 09:43:07;;;;;;;7.47;6.83;;;19.00;45.00;;;;;;20772;6828;117232;-75
2022/05/06 09:45:37;;;;;;;8.23;7.67;;;18.80;45.70;;;;;;20724;6828;118557;-75
2022/05/06 09:48:01;;;;;;;8.40;7.70;;;18.70;46.50;;;;;;20523;6828;278415;-75
2022/05/06 09:50:33;;;;;;;7.95;7.25;;;18.90;43.90;;;;;;20558;6828;341316;-76
2022/05/06 09:53:00;;;;;;;8.37;7.73;;;19.30;43.70;;;;;;20722;6828;117827;-75
2022/05/06 09:55:24;;;;;;;7.90;7.30;;;19.40;44.70;;;;;;20755;6828;118296;-76
2022/05/06 09:57:50;;;;;;;7.20;6.60;;;19.30;45.30;;;;;;20757;6828;121508;-75
2022/05/06 10:00:16;;;;;;;7.97;7.47;;;19.20;45.90;;;;;;20780;6828;118139;-75
2022/05/06 10:02:41;;;;;;;7.57;6.87;;;19.10;46.00;;;;;;20771;6828;117863;-75
2022/05/06 10:05:07;;;;;;;7.67;7.10;;;19.00;45.70;;;;;;20784;6828;118473;-75
2022/05/06 10:07:32;;;;;;;7.53;7.03;;;18.90;45.80;;;;;;20779;6828;117220;-74
2022/05/06 10:10:08;;;;;;;8.40;7.80;;;18.80;45.80;;;;;;20527;6828;341665;-72
2022/05/06 10:12:35;;;;;;;8.43;7.60;;;19.00;42.50;;;;;;20519;6828;337522;-73
2022/05/06 10:15:02;;;;;;;7.37;6.80;;;19.40;42.30;;;;;;20743;6828;118388;-75
2022/05/06 10:17:56;;;;;;;8.30;7.60;;;19.30;43.20;;;;;;20561;6828;308004;-74
2022/05/06 10:20:45;;;;;;;9.00;8.30;;;19.40;41.90;;;;;;20552;6828;337085;-76
2022/05/06 10:23:15;;;;;;;7.50;6.80;;;19.70;41.50;;;;;;20762;6828;117144;-76
2022/05/06 10:25:43;;;;;;;7.97;7.37;;;19.60;42.80;;;;;;20758;6828;122180;-74
2022/05/06 10:34:12;;;;;;;8.45;7.75;;;18.90;44.80;;;;;;20564;6828;307595;-77
2022/05/06 10:36:47;;;;;;;8.43;7.72;;;19.10;43.20;;;;;;20560;6828;308506;-76
2022/05/06 10:39:13;;;;;;;8.27;7.57;;;19.40;42.80;;;;;;20553;6828;307093;-75
2022/05/06 10:41:38;;;;;;;8.38;7.60;;;19.70;42.10;;;;;;20735;6828;117218;-75
2022/05/06 10:44:04;;;;;;;8.48;7.80;;;19.70;43.20;;;;;;20684;6825;117691;-75
2022/05/06 10:46:30;;;;;;;8.70;7.63;;;19.60;43.80;;;;;;20781;6827;120889;-76
2022/05/06 10:48:55;;;;;;;8.10;7.30;;;19.40;44.60;;;;;;20767;6827;117746;-74
2022/05/06 10:51:25;;;;;;;8.63;7.82;;;19.40;45.00;;;;;;20567;6827;277622;-75
2022/05/06 10:53:46;;;;;;;7.97;7.37;;;19.50;43.30;;;;;;20691;6827;118762;-73
2022/05/06 10:56:12;;;;;;;8.93;8.13;;;19.70;44.20;;;;;;20557;6828;278751;-75
2022/05/06 10:58:38;;;;;;;10.13;9.23;;;20.30;42.10;;;;;;20578;6828;278474;-77
2022/05/06 11:01:04;;;;;;;9.40;8.60;;;20.30;42.10;;;;;;20557;6828;312818;-74
2022/05/06 11:03:29;;;;;;;8.77;8.15;;;20.60;41.10;;;;;;20774;6828;117647;-75
2022/05/06 11:05:56;;;;;;;8.95;8.18;;;20.70;41.50;;;;;;20535;6828;309061;-75
2022/05/06 11:08:22;;;;;;;8.53;7.63;;;20.70;41.40;;;;;;20769;6828;118515;-73
2022/05/06 11:10:49;;;;;;;8.57;7.97;;;20.70;42.50;;;;;;20518;6828;278069;-75
2022/05/06 11:13:13;;;;;;;10.63;7.90;;;20.80;41.40;;;;;;20760;6828;117348;-73
2022/05/06 11:15:39;;;;;;;8.40;7.60;;;20.70;42.30;;;;;;20774;6828;124588;-77
2022/05/06 11:18:05;;;;;;;7.90;7.40;;;20.50;42.70;;;;;;20614;6828;118022;-73
2022/05/06 11:20:31;;;;;;;8.93;8.33;;;20.20;43.20;;;;;;20549;6828;308997;-74
2022/05/06 11:22:56;;;;;;;7.90;7.30;;;20.40;42.00;;;;;;20735;6828;117193;-73
2022/05/06 11:25:22;;;;;;;8.87;8.00;;;20.20;43.20;;;;;;20739;6828;116285;-72
2022/05/06 11:27:54;;;;;;;7.53;6.93;;;20.20;43.20;;;;;;20753;6828;118376;-75
2022/05/06 11:30:19;;;;;;;9.18;8.43;;;20.00;43.80;;;;;;20554;6828;282143;-77
2022/05/06 11:32:49;;;;;;;9.63;8.93;;;20.20;42.20;;;;;;20555;6828;307976;-78
2022/05/06 11:35:14;;;;;;;8.70;8.10;;;20.40;42.20;;;;;;20550;6828;307160;-74
2022/05/06 11:37:40;;;;;;;8.20;7.63;;;20.70;41.40;;;;;;20751;6828;124466;-76
2022/05/06 11:40:43;;;;;;;9.00;8.47;;;20.80;41.60;;;;;;20552;6828;314950;-73
2022/05/06 11:42:38;;;;;;;9.67;8.77;;;20.70;40.80;;;;;;20330;6828;308504;-75
2022/05/06 11:47:50;;;;;;;8.27;7.70;;;20.80;42.50;;;;;;20753;6828;117121;-75
2022/05/06 11:50:15;;;;;;;9.40;8.50;;;20.50;43.00;;;;;;20566;6828;308005;-73
2022/05/06 11:52:41;;;;;;;7.77;7.33;;;20.50;42.00;;;;;;20762;6828;117672;-72
2022/05/06 11:55:07;;;;;;;9.13;8.37;;;20.60;41.80;;;;;;20551;6826;307451;-75
2022/05/06 11:57:36;;;;;;;8.77;8.10;;;20.50;41.70;;;;;;20768;6827;117648;-70
2022/05/06 12:00:02;;;;;;;10.05;9.18;;;20.50;42.90;;;;;;20539;6827;277680;-73
2022/05/06 12:02:27;;;;;;;9.37;8.57;;;20.60;42.80;;;;;;20512;6827;292077;-74
2022/05/06 12:04:53;;;;;;;8.47;7.77;;;20.90;41.30;;;;;;20772;6827;117119;-73
2022/05/06 12:07:18;;;;;;;9.37;8.50;;;20.80;42.10;;;;;;20564;6828;306819;-75
2022/05/06 12:09:45;;;;;;;8.57;7.70;;;20.80;42.20;;;;;;20738;6828;117267;-73
2022/05/06 12:12:10;;;;;;;8.23;7.63;;;20.80;42.20;;;;;;20736;6828;117363;-72
2022/05/06 12:14:39;;;;;;;8.93;8.40;;;20.60;43.00;;;;;;20564;6828;279393;-72
2022/05/06 12:17:05;;;;;;;9.20;8.47;;;20.60;41.60;;;;;;20555;6828;278399;-71
2022/05/06 12:19:45;;;;;;;8.83;8.03;;;20.90;41.60;;;;;;20751;6828;117607;-73
2022/05/06 12:22:12;;;;;;;8.83;8.07;;;20.80;42.30;;;;;;20759;6828;121138;-74
2022/05/06 12:24:37;;;;;;;8.77;8.07;;;20.50;43.00;;;;;;20750;6828;117312;-76
2022/05/06 12:27:03;;;;;;;9.30;8.70;;;20.40;43.60;;;;;;20528;6828;336629;-77
2022/05/06 12:29:28;;;;;;;8.47;7.97;;;20.50;42.30;;;;;;20776;6828;117183;-73
2022/05/06 12:31:53;;;;;;;9.38;8.57;;;20.60;43.20;;;;;;20725;6828;117703;-74
2022/05/06 12:34:19;;;;;;;10.02;9.13;;;20.50;43.90;;;;;;20519;6828;308069;-73
2022/05/06 12:36:47;;;;;;;9.20;8.30;;;20.70;43.40;;;;;;20736;6828;117292;-72
2022/05/06 12:39:16;;;;;;;8.50;7.83;;;20.80;43.00;;;;;;20769;6828;119216;-72
2022/05/06 12:41:43;;;;;;;8.37;7.77;;;20.60;43.30;;;;;;20673;6828;117571;-72
2022/05/06 12:44:20;;;;;;;8.90;8.20;;;20.50;43.70;;;;;;20558;6828;307922;-71
2022/05/06 12:46:47;;;;;;;8.13;7.63;;;20.60;42.30;;;;;;20768;6828;117079;-72
2022/05/06 12:51:59;;;;;;;8.40;7.63;;;20.50;43.90;;;;;;20545;6828;404367;-74
2022/05/06 12:54:26;;;;;;;9.00;8.30;;;20.70;42.50;;;;;;20576;6828;307078;-74
2022/05/06 12:56:50;;;;;;;8.53;8.03;;;21.10;41.00;;;;;;20536;6828;336762;-72
2022/05/06 12:59:16;;;;;;;9.00;8.20;;;21.30;40.70;;;;;;20569;6828;307908;-72
2022/05/06 13:01:42;;;;;;;9.00;8.20;;;21.50;40.50;;;;;;20536;6828;282208;-71
2022/05/06 13:04:08;;;;;;;8.03;7.33;;;21.70;40.10;;;;;;20777;6828;117304;-71